createdAt,value
2018-07-15T00:01:47.080Z,5.07
2018-07-15T00:04:15.709Z,5.17
2018-07-15T00:06:45.214Z,3.23
2018-07-15T00:09:14.457Z,5.03
2018-07-15T00:11:43.023Z,3.93
2018-07-15T00:14:11.581Z,8.10
2018-07-15T00:16:40.161Z,5.00
2018-07-15T00:19:08.700Z,6.90
2018-07-15T00:21:37.243Z,3.30
2018-07-15T00:24:05.895Z,6.90
2018-07-15T00:26:34.404Z,10.03
2018-07-15T00:29:03.073Z,4.23
2018-07-15T00:31:31.763Z,4.40
2018-07-15T00:34:00.360Z,8.20
2018-07-15T00:36:28.919Z,4.43
2018-07-15T00:38:57.508Z,2.70
2018-07-15T00:41:26.042Z,2.73
2018-07-15T00:43:54.675Z,4.57
2018-07-15T00:46:23.360Z,4.20
2018-07-15T00:48:52.094Z,2.60
2018-07-15T00:51:20.730Z,4.10
2018-07-15T00:53:49.419Z,3.73
2018-07-15T00:56:17.945Z,4.67
2018-07-15T00:58:46.581Z,3.77
2018-07-15T01:01:15.269Z,10.03
2018-07-15T01:03:43.918Z,4.60
2018-07-15T01:06:12.533Z,4.23
2018-07-15T01:08:41.084Z,4.80
2018-07-15T01:11:09.622Z,2.80
2018-07-15T01:13:38.283Z,5.30
2018-07-15T01:16:06.983Z,6.20
2018-07-15T01:18:36.474Z,4.67
2018-07-15T01:21:05.594Z,5.57
2018-07-15T01:23:34.254Z,6.80
2018-07-15T01:26:02.863Z,3.57
2018-07-15T01:28:31.521Z,5.80
2018-07-15T01:31:00.174Z,5.40
2018-07-15T01:33:28.742Z,7.07
2018-07-15T01:35:57.375Z,7.13
2018-07-15T01:38:25.983Z,4.37
2018-07-15T01:40:54.488Z,4.47
2018-07-15T01:43:23.020Z,4.97
2018-07-15T01:45:51.529Z,3.70
2018-07-15T01:48:20.186Z,8.30
2018-07-15T01:50:48.727Z,5.83
2018-07-15T01:53:17.350Z,6.00
2018-07-15T01:55:45.885Z,4.47
2018-07-15T01:58:14.459Z,5.13
2018-07-15T02:00:43.043Z,5.30
2018-07-15T02:03:11.681Z,4.57
2018-07-15T02:05:40.895Z,3.83
2018-07-15T02:08:09.406Z,9.47
2018-07-15T02:10:37.990Z,7.93
2018-07-15T02:13:06.939Z,8.03
2018-07-15T02:15:35.465Z,8.87
2018-07-15T02:18:04.044Z,7.97
2018-07-15T02:20:32.683Z,9.70
2018-07-15T02:23:01.266Z,7.07
2018-07-15T02:25:29.878Z,6.20
2018-07-15T02:27:58.497Z,5.33
2018-07-15T02:30:27.121Z,6.57
2018-07-15T02:32:55.613Z,6.00
2018-07-15T02:35:24.243Z,9.20
2018-07-15T02:37:52.867Z,8.13
2018-07-15T02:40:21.550Z,5.73
2018-07-15T02:42:50.241Z,6.83
2018-07-15T02:45:18.818Z,5.20
2018-07-15T02:47:47.402Z,7.80
2018-07-15T02:50:16.057Z,9.53
2018-07-15T02:52:44.772Z,8.27
2018-07-15T02:55:13.447Z,5.17
2018-07-15T02:57:42.123Z,6.20
2018-07-15T03:00:10.627Z,7.77
2018-07-15T03:02:39.231Z,9.10
2018-07-15T03:05:07.892Z,6.57
2018-07-15T03:07:36.511Z,8.60
2018-07-15T03:10:05.079Z,9.00
2018-07-15T03:12:33.608Z,7.23
2018-07-15T03:15:02.123Z,11.30
2018-07-15T03:17:30.764Z,4.67
2018-07-15T03:19:59.243Z,5.27
2018-07-15T03:22:27.755Z,8.07
2018-07-15T03:24:56.400Z,6.47
2018-07-15T03:27:25.034Z,9.07
2018-07-15T03:29:54.320Z,8.23
2018-07-15T03:32:23.020Z,4.97
2018-07-15T03:34:51.547Z,9.00
2018-07-15T03:37:20.134Z,7.87
2018-07-15T03:39:48.926Z,5.20
2018-07-15T03:42:17.456Z,7.30
2018-07-15T03:44:46.092Z,8.53
2018-07-15T03:47:14.826Z,9.03
2018-07-15T03:49:43.412Z,8.23
2018-07-15T03:52:12.043Z,6.40
2018-07-15T03:54:40.611Z,10.50
2018-07-15T03:57:09.258Z,5.60
2018-07-15T03:59:37.845Z,8.17
2018-07-15T04:02:06.629Z,5.50
2018-07-15T04:04:35.255Z,7.87
2018-07-15T04:07:03.843Z,6.63
2018-07-15T04:09:32.479Z,4.50
2018-07-15T04:12:01.115Z,10.00
2018-07-15T04:14:29.669Z,8.93
2018-07-15T04:16:58.254Z,10.43
2018-07-15T04:19:26.917Z,5.87
2018-07-15T04:21:55.557Z,8.20
2018-07-15T04:24:24.130Z,5.47
2018-07-15T04:26:52.971Z,4.70
2018-07-15T04:29:21.552Z,4.57
2018-07-15T04:31:50.168Z,10.87
2018-07-15T04:34:18.707Z,7.07
2018-07-15T04:36:48.017Z,7.03
2018-07-15T04:39:17.367Z,6.53
2018-07-15T04:41:46.004Z,8.50
2018-07-15T04:44:14.585Z,10.43
2018-07-15T04:46:43.111Z,6.77
2018-07-15T04:49:11.638Z,5.87
2018-07-15T04:51:40.120Z,5.20
2018-07-15T04:54:08.751Z,5.53
2018-07-15T04:56:37.396Z,6.33
2018-07-15T04:59:05.995Z,6.03
2018-07-15T05:01:39.067Z,8.77
2018-07-15T05:04:07.561Z,4.57
2018-07-15T05:06:36.177Z,6.67
2018-07-15T05:09:06.003Z,6.03
2018-07-15T05:11:34.537Z,4.60
2018-07-15T05:14:03.109Z,6.33
2018-07-15T05:16:31.643Z,6.97
2018-07-15T05:19:00.420Z,6.63
2018-07-15T05:21:29.115Z,10.17
2018-07-15T05:23:57.647Z,7.73
2018-07-15T05:26:26.433Z,6.37
2018-07-15T05:28:55.033Z,5.43
2018-07-15T05:31:23.701Z,7.87
2018-07-15T05:33:52.320Z,7.80
2018-07-15T05:36:20.912Z,6.47
2018-07-15T05:38:49.551Z,9.30
2018-07-15T05:41:18.100Z,8.53
2018-07-15T05:43:46.659Z,4.97
2018-07-15T05:46:15.216Z,6.93
2018-07-15T05:48:43.725Z,7.40
2018-07-15T05:51:12.993Z,8.83
2018-07-15T05:53:41.623Z,6.47
2018-07-15T05:56:10.158Z,6.73
2018-07-15T05:58:38.753Z,8.10
2018-07-15T06:01:07.802Z,7.33
2018-07-15T06:03:36.469Z,7.93
2018-07-15T06:06:05.089Z,7.47
2018-07-15T06:08:33.631Z,5.30
2018-07-15T06:11:02.523Z,4.43
2018-07-15T06:13:32.111Z,9.83
2018-07-15T06:16:00.717Z,8.63
2018-07-15T06:18:29.288Z,4.63
2018-07-15T06:20:57.863Z,9.13
2018-07-15T06:23:26.504Z,5.57
2018-07-15T06:25:55.013Z,4.40
2018-07-15T06:28:23.512Z,7.73
2018-07-15T06:30:52.067Z,8.60
2018-07-15T06:33:20.656Z,4.50
2018-07-15T06:35:49.256Z,9.40
2018-07-15T06:38:17.852Z,7.73
2018-07-15T06:40:46.735Z,6.33
2018-07-15T06:43:15.369Z,4.70
2018-07-15T06:45:43.911Z,5.70
2018-07-15T06:48:12.477Z,6.97
2018-07-15T06:50:41.038Z,6.80
2018-07-15T06:53:09.631Z,5.27
2018-07-15T06:55:38.202Z,7.70
2018-07-15T06:58:06.715Z,8.77
2018-07-15T07:00:35.336Z,10.90
2018-07-15T07:03:04.033Z,5.70
2018-07-15T07:05:32.923Z,6.67
2018-07-15T07:08:01.574Z,6.47
2018-07-15T07:10:30.121Z,8.93
2018-07-15T07:12:58.714Z,9.23
2018-07-15T07:15:27.973Z,8.03
2018-07-15T07:17:56.602Z,8.20
2018-07-15T07:20:25.196Z,6.83
2018-07-15T07:22:53.820Z,8.07
2018-07-15T07:25:22.506Z,10.67
2018-07-15T07:27:51.180Z,6.77
2018-07-15T07:30:20.563Z,9.53
2018-07-15T07:32:49.137Z,4.83
2018-07-15T07:35:18.379Z,5.70
2018-07-15T07:37:47.060Z,8.23
2018-07-15T07:40:15.698Z,6.97
2018-07-15T07:42:44.371Z,8.73
2018-07-15T07:45:13.015Z,7.40
2018-07-15T07:47:41.731Z,7.53
2018-07-15T07:50:10.303Z,5.83
2018-07-15T07:52:39.067Z,7.87
2018-07-15T07:55:07.658Z,6.77
2018-07-15T07:57:36.284Z,8.80
2018-07-15T08:00:05.091Z,4.97
2018-07-15T08:02:33.618Z,8.17
2018-07-15T08:05:02.223Z,4.07
2018-07-15T08:07:30.817Z,6.83
2018-07-15T08:09:59.455Z,7.60
2018-07-15T08:12:28.757Z,7.80
2018-07-15T08:14:58.106Z,7.23
2018-07-15T08:17:26.636Z,7.13
2018-07-15T08:19:55.299Z,7.37
2018-07-15T08:22:23.909Z,5.43
2018-07-15T08:24:52.593Z,6.20
2018-07-15T08:27:21.173Z,6.10
2018-07-15T08:30:01.027Z,5.33
2018-07-15T08:32:29.632Z,6.90
2018-07-15T08:34:58.283Z,9.13
2018-07-15T08:37:26.811Z,7.83
2018-07-15T08:39:55.559Z,7.67
2018-07-15T08:42:24.079Z,7.53
2018-07-15T08:44:52.758Z,12.63
2018-07-15T08:47:21.408Z,11.17
2018-07-15T08:49:49.940Z,11.10
2018-07-15T08:52:18.529Z,11.07
2018-07-15T08:54:47.181Z,7.72
2018-07-15T08:57:15.742Z,9.13
2018-07-15T08:59:44.528Z,6.77
2018-07-15T09:02:13.781Z,10.08
2018-07-15T09:04:42.398Z,9.93
2018-07-15T09:07:10.931Z,9.48
2018-07-15T09:09:39.509Z,10.03
2018-07-15T09:12:08.773Z,7.60
2018-07-15T09:14:37.376Z,11.53
2018-07-15T09:17:06.004Z,9.98
2018-07-15T09:19:34.975Z,8.93
2018-07-15T09:22:04.423Z,8.05
2018-07-15T09:24:33.570Z,10.10
2018-07-15T09:27:02.419Z,13.03
2018-07-15T09:29:30.906Z,13.38
2018-07-15T09:31:59.545Z,9.00
2018-07-15T09:34:28.169Z,8.90
2018-07-15T09:36:56.752Z,8.23
2018-07-15T09:39:25.392Z,9.15
2018-07-15T09:41:53.976Z,11.22
2018-07-15T09:44:22.543Z,10.08
2018-07-15T09:46:51.261Z,10.82
2018-07-15T09:49:19.800Z,10.32
2018-07-15T09:51:48.384Z,13.48
2018-07-15T09:54:16.993Z,10.63
2018-07-15T09:56:45.539Z,10.82
2018-07-15T09:59:14.260Z,9.65
2018-07-15T10:01:42.832Z,14.93
2018-07-15T10:04:11.368Z,9.78
2018-07-15T10:06:39.896Z,10.95
2018-07-15T10:09:08.466Z,12.40
2018-07-15T10:11:37.539Z,11.68
2018-07-15T10:14:06.110Z,10.82
2018-07-15T10:16:34.618Z,10.55
2018-07-15T10:19:03.327Z,10.50
2018-07-15T10:21:31.907Z,9.83
2018-07-15T10:24:00.471Z,10.88
2018-07-15T10:26:29.195Z,9.85
2018-07-15T10:28:57.684Z,10.82
2018-07-15T10:31:26.249Z,10.13
2018-07-15T10:33:54.875Z,11.78
2018-07-15T10:36:23.391Z,10.82
2018-07-15T10:38:51.990Z,16.17
2018-07-15T10:41:20.612Z,13.20
2018-07-15T10:43:49.515Z,10.38
2018-07-15T10:46:18.028Z,10.13
2018-07-15T10:48:46.627Z,9.98
2018-07-15T10:51:15.363Z,9.13
2018-07-15T10:53:43.967Z,13.95
2018-07-15T10:56:12.531Z,12.70
2018-07-15T10:58:41.216Z,10.25
2018-07-15T11:01:10.045Z,13.50
2018-07-15T11:03:38.690Z,16.27
2018-07-15T11:06:07.416Z,15.78
2018-07-15T11:08:35.984Z,15.50
2018-07-15T11:11:04.591Z,11.25
2018-07-15T11:13:33.258Z,9.88
2018-07-15T11:16:01.843Z,13.43
2018-07-15T11:18:30.496Z,11.00
2018-07-15T11:21:00.715Z,11.20
2018-07-15T11:23:29.400Z,9.10
2018-07-15T11:25:57.966Z,11.78
2018-07-15T11:28:26.611Z,11.83
2018-07-15T11:30:55.608Z,12.05
2018-07-15T11:33:24.103Z,13.53
2018-07-15T11:35:52.827Z,12.50
2018-07-15T11:38:21.410Z,10.40
2018-07-15T11:40:49.994Z,9.43
2018-07-15T11:43:18.599Z,8.95
2018-07-15T11:45:49.830Z,8.95
2018-07-15T11:48:18.515Z,10.98
2018-07-15T11:50:47.121Z,14.20
2018-07-15T11:53:15.740Z,9.38
2018-07-15T11:55:44.299Z,9.28
2018-07-15T11:58:12.870Z,11.93
2018-07-15T12:00:41.490Z,8.15
2018-07-15T12:03:10.147Z,11.15
2018-07-15T12:05:38.656Z,12.07
2018-07-15T12:08:07.358Z,8.03
2018-07-15T12:10:36.106Z,10.25
2018-07-15T12:13:04.654Z,12.07
2018-07-15T12:15:33.428Z,10.23
2018-07-15T12:18:01.907Z,8.50
2018-07-15T12:20:30.508Z,11.35
2018-07-15T12:23:00.199Z,11.22
2018-07-15T12:25:29.520Z,10.63
2018-07-15T12:27:58.126Z,9.90
2018-07-15T12:30:26.878Z,9.18
2018-07-15T12:32:55.483Z,10.80
2018-07-15T12:35:25.023Z,10.75
2018-07-15T12:37:53.575Z,8.55
2018-07-15T12:40:22.069Z,11.12
2018-07-15T12:42:50.708Z,10.05
2018-07-15T12:45:20.273Z,8.45
2018-07-15T12:47:48.824Z,12.28
2018-07-15T12:50:17.402Z,9.35
2018-07-15T12:52:46.056Z,8.58
2018-07-15T12:55:14.645Z,10.23
2018-07-15T12:57:43.228Z,9.70
2018-07-15T13:00:11.913Z,9.23
2018-07-15T13:02:40.552Z,8.93
2018-07-15T13:05:09.201Z,9.95
2018-07-15T13:07:38.788Z,8.38
2018-07-15T13:10:07.390Z,7.35
2018-07-15T13:12:36.364Z,9.03
2018-07-15T13:15:05.457Z,7.70
2018-07-15T13:17:34.145Z,8.98
2018-07-15T13:20:02.671Z,6.87
2018-07-15T13:22:31.694Z,10.03
2018-07-15T13:25:00.283Z,10.45
2018-07-15T13:27:28.887Z,7.80
2018-07-15T13:29:57.569Z,12.90
2018-07-15T13:32:26.177Z,6.53
2018-07-15T13:34:54.779Z,9.05
2018-07-15T13:37:23.833Z,8.38
2018-07-15T13:39:52.459Z,9.30
2018-07-15T13:42:21.039Z,8.58
2018-07-15T13:44:49.673Z,10.08
2018-07-15T13:47:18.163Z,10.23
2018-07-15T13:49:46.849Z,9.28
2018-07-15T13:52:15.490Z,6.47
2018-07-15T13:54:44.030Z,7.75
2018-07-15T13:57:12.698Z,7.78
2018-07-15T13:59:41.347Z,6.20
2018-07-15T14:02:09.856Z,10.72
2018-07-15T14:04:38.463Z,7.22
2018-07-15T14:07:07.065Z,9.53
2018-07-15T14:09:35.717Z,9.53
2018-07-15T14:12:04.351Z,11.20
2018-07-15T14:14:32.930Z,10.00
2018-07-15T14:17:01.503Z,6.50
2018-07-15T14:19:30.046Z,11.70
2018-07-15T14:21:58.611Z,8.83
2018-07-15T14:24:27.210Z,11.35
2018-07-15T14:26:55.898Z,7.62
2018-07-15T14:29:24.395Z,8.30
2018-07-15T14:31:52.958Z,9.60
2018-07-15T14:34:21.475Z,6.05
2018-07-15T14:36:50.089Z,5.55
2018-07-15T14:39:18.690Z,7.67
2018-07-15T14:41:47.357Z,6.90
2018-07-15T14:44:16.687Z,8.55
2018-07-15T14:46:46.002Z,9.18
2018-07-15T14:49:14.515Z,5.40
2018-07-15T14:51:43.120Z,8.25
2018-07-15T14:54:11.759Z,8.23
2018-07-15T14:56:40.388Z,6.30
2018-07-15T14:59:08.951Z,11.12
2018-07-15T15:01:37.493Z,7.95
2018-07-15T15:04:06.024Z,9.90
2018-07-15T15:06:34.630Z,8.18
2018-07-15T15:09:03.366Z,8.13
2018-07-15T15:11:31.928Z,7.37
2018-07-15T15:14:00.573Z,7.37
2018-07-15T15:16:29.078Z,7.72
2018-07-15T15:18:57.593Z,5.62
2018-07-15T15:21:26.310Z,7.75
2018-07-15T15:23:55.369Z,8.03
2018-07-15T15:26:23.979Z,7.22
2018-07-15T15:28:52.819Z,6.12
2018-07-15T15:31:21.413Z,7.92
2018-07-15T15:33:50.031Z,8.20
2018-07-15T15:36:18.881Z,8.83
2018-07-15T15:38:47.468Z,7.95
2018-07-15T15:41:15.963Z,7.90
2018-07-15T15:43:45.255Z,7.17
2018-07-15T15:46:13.827Z,5.83
2018-07-15T15:48:42.447Z,7.92
2018-07-15T15:51:11.816Z,5.60
2018-07-15T15:53:40.347Z,7.33
2018-07-15T15:56:08.921Z,6.20
2018-07-15T15:58:38.137Z,6.80
2018-07-15T16:01:06.676Z,7.40
2018-07-15T16:03:35.270Z,8.75
2018-07-15T16:06:03.923Z,6.87
2018-07-15T16:08:32.434Z,7.12
2018-07-15T16:11:01.012Z,7.80
2018-07-15T16:13:29.774Z,10.43
2018-07-15T16:15:58.357Z,9.73
2018-07-15T16:18:26.941Z,7.35
2018-07-15T16:20:55.830Z,5.85
2018-07-15T16:23:24.360Z,9.80
2018-07-15T16:25:52.908Z,8.53
2018-07-15T16:28:21.514Z,7.22
2018-07-15T16:30:50.163Z,8.38
2018-07-15T16:33:18.744Z,6.25
2018-07-15T16:35:48.019Z,6.83
2018-07-15T16:38:16.573Z,9.30
2018-07-15T16:40:45.145Z,9.80
2018-07-15T16:43:13.757Z,9.73
2018-07-15T16:45:42.331Z,9.63
2018-07-15T16:48:11.019Z,7.17
2018-07-15T16:50:39.594Z,7.95
2018-07-15T16:53:08.215Z,8.55
2018-07-15T16:55:36.809Z,10.05
2018-07-15T16:58:05.479Z,6.28
2018-07-15T17:00:34.083Z,10.10
2018-07-15T17:03:02.654Z,6.83
2018-07-15T17:05:31.243Z,8.73
2018-07-15T17:07:59.827Z,7.92
2018-07-15T17:10:28.323Z,9.08
2018-07-15T17:12:56.953Z,9.43
2018-07-15T17:15:26.465Z,6.67
2018-07-15T17:17:55.078Z,7.47
2018-07-15T17:20:23.767Z,11.08
2018-07-15T17:22:53.063Z,9.75
2018-07-15T17:25:21.589Z,8.68
2018-07-15T17:27:50.231Z,9.95
2018-07-15T17:30:18.837Z,7.97
2018-07-15T17:32:47.497Z,8.83
2018-07-15T17:35:16.007Z,7.95
2018-07-15T17:37:44.702Z,6.22
2018-07-15T17:40:13.347Z,8.68
2018-07-15T17:42:42.023Z,6.85
2018-07-15T17:45:10.616Z,7.80
2018-07-15T17:47:39.142Z,9.30
2018-07-15T17:50:07.790Z,12.90
2018-07-15T17:52:36.422Z,8.40
2018-07-15T17:55:04.981Z,7.12
2018-07-15T17:57:33.635Z,8.28
2018-07-15T18:00:02.893Z,10.98
2018-07-15T18:02:31.432Z,9.68
2018-07-15T18:05:00.152Z,15.18
2018-07-15T18:07:29.216Z,9.75
2018-07-15T18:09:57.878Z,14.10
2018-07-15T18:12:26.385Z,7.72
2018-07-15T18:14:55.560Z,10.10
2018-07-15T18:17:24.189Z,8.55
2018-07-15T18:19:52.994Z,9.58
2018-07-15T18:22:21.557Z,10.48
2018-07-15T18:24:50.155Z,11.68
2018-07-15T18:27:18.771Z,9.43
2018-07-15T18:29:47.382Z,9.08
2018-07-15T18:32:15.935Z,9.08
2018-07-15T18:34:44.943Z,9.73
2018-07-15T18:37:13.653Z,12.13
2018-07-15T18:39:42.295Z,10.48
2018-07-15T18:42:10.890Z,9.65
2018-07-15T18:44:39.387Z,11.45
2018-07-15T18:47:08.056Z,14.40
2018-07-15T18:49:36.651Z,12.07
2018-07-15T18:52:05.265Z,10.70
2018-07-15T18:54:33.907Z,12.87
2018-07-15T18:57:02.471Z,13.70
2018-07-15T18:59:31.023Z,13.80
2018-07-15T19:01:59.654Z,15.53
2018-07-15T19:04:28.155Z,12.97
2018-07-15T19:06:56.768Z,14.47
2018-07-15T19:09:25.495Z,15.47
2018-07-15T19:11:54.048Z,15.13
2018-07-15T19:14:22.721Z,14.07
2018-07-15T19:16:51.415Z,18.00
2018-07-15T19:19:20.095Z,12.23
2018-07-15T19:21:48.683Z,17.17
2018-07-15T19:24:17.259Z,20.07
2018-07-15T19:26:45.855Z,16.40
2018-07-15T19:29:14.526Z,13.90
2018-07-15T19:31:43.164Z,13.23
2018-07-15T19:34:11.951Z,16.33
2018-07-15T19:36:40.658Z,16.27
2018-07-15T19:39:09.301Z,14.90
2018-07-15T19:41:38.008Z,16.23
2018-07-15T19:44:06.610Z,20.30
2018-07-15T19:46:35.135Z,19.27
2018-07-15T19:49:04.119Z,14.13
2018-07-15T19:51:32.643Z,18.30
2018-07-15T19:54:01.255Z,13.87
2018-07-15T19:56:29.863Z,18.83
2018-07-15T19:58:58.443Z,20.00
2018-07-15T20:01:27.141Z,19.73
2018-07-15T20:03:55.968Z,16.00
2018-07-15T20:06:24.653Z,17.33
2018-07-15T20:08:53.341Z,13.13
2018-07-15T20:11:21.864Z,16.43
2018-07-15T20:13:50.427Z,17.73
2018-07-15T20:16:19.091Z,18.13
2018-07-15T20:18:47.776Z,17.63
2018-07-15T20:21:16.410Z,16.57
2018-07-15T20:23:44.991Z,15.80
2018-07-15T20:26:13.795Z,14.63
2018-07-15T20:28:42.365Z,23.40
2018-07-15T20:31:10.994Z,15.27
2018-07-15T20:33:39.535Z,13.77
2018-07-15T20:36:08.104Z,17.60
2018-07-15T20:38:36.743Z,14.20
2018-07-15T20:41:05.263Z,13.37
2018-07-15T20:43:33.835Z,13.17
2018-07-15T20:46:02.441Z,15.17
2018-07-15T20:48:31.078Z,14.17
2018-07-15T20:51:00.203Z,14.83
2018-07-15T20:53:28.785Z,13.03
2018-07-15T20:55:57.367Z,13.03
2018-07-15T20:58:26.020Z,13.30
2018-07-15T21:00:54.547Z,15.77
2018-07-15T21:03:23.185Z,12.77
2018-07-15T21:05:51.801Z,14.60
2018-07-15T21:08:20.369Z,11.10
2018-07-15T21:10:49.037Z,11.87
2018-07-15T21:13:18.337Z,13.47
2018-07-15T21:15:47.022Z,13.57
2018-07-15T21:18:15.742Z,11.27
2018-07-15T21:20:44.447Z,12.33
2018-07-15T21:23:13.682Z,13.17
2018-07-15T21:25:42.258Z,10.87
2018-07-15T21:28:10.758Z,15.03
2018-07-15T21:30:39.444Z,12.67
2018-07-15T21:33:08.025Z,12.13
2018-07-15T21:35:36.708Z,13.43
2018-07-15T21:38:05.429Z,12.63
2018-07-15T21:40:34.073Z,10.63
2018-07-15T21:43:02.663Z,13.50
2018-07-15T21:45:31.245Z,13.67
2018-07-15T21:47:59.828Z,10.80
2018-07-15T21:50:28.468Z,11.40
2018-07-15T21:52:57.099Z,12.87
2018-07-15T21:55:26.192Z,13.70
2018-07-15T21:57:54.834Z,12.97
2018-07-15T22:00:23.384Z,12.87
2018-07-15T22:02:53.012Z,10.60
2018-07-15T22:05:21.648Z,12.03
2018-07-15T22:08:01.321Z,12.77
2018-07-15T22:10:37.892Z,14.93
2018-07-15T22:13:06.422Z,11.30
2018-07-15T22:15:35.482Z,15.43
2018-07-15T22:18:04.688Z,12.30
2018-07-15T22:20:33.263Z,12.83
2018-07-15T22:23:02.355Z,14.77
2018-07-15T22:25:30.952Z,12.77
2018-07-15T22:28:00.705Z,11.37
2018-07-15T22:30:29.310Z,13.67
2018-07-15T22:32:57.902Z,12.13
2018-07-15T22:35:26.648Z,13.47
2018-07-15T22:37:55.344Z,10.93
2018-07-15T22:40:23.842Z,12.67
2018-07-15T22:42:52.445Z,12.87
2018-07-15T22:45:20.991Z,16.50
2018-07-15T22:47:49.640Z,13.67
2018-07-15T22:50:18.792Z,12.20
2018-07-15T22:52:47.456Z,13.50
2018-07-15T22:55:15.958Z,15.13
2018-07-15T22:57:44.723Z,14.87
2018-07-15T23:00:13.421Z,16.07
2018-07-15T23:02:41.926Z,14.53
2018-07-15T23:05:51.125Z,11.07
2018-07-15T23:08:20.118Z,15.03
2018-07-15T23:10:48.847Z,12.27
2018-07-15T23:13:17.897Z,14.47
2018-07-15T23:15:46.542Z,13.67
2018-07-15T23:18:15.168Z,14.53
2018-07-15T23:20:44.535Z,16.63
2018-07-15T23:23:13.663Z,15.20
2018-07-15T23:25:42.164Z,11.73
2018-07-15T23:28:12.511Z,15.73
2018-07-15T23:30:41.873Z,16.50
2018-07-15T23:33:11.006Z,14.20
2018-07-15T23:35:39.700Z,11.37
2018-07-15T23:38:08.337Z,14.10
2018-07-15T23:40:36.903Z,15.70
2018-07-15T23:43:05.918Z,16.90
2018-07-15T23:45:35.255Z,13.13
2018-07-15T23:48:04.819Z,13.50
2018-07-15T23:50:33.501Z,14.00
2018-07-15T23:53:02.188Z,14.50
2018-07-15T23:55:30.858Z,14.67
2018-07-15T23:57:59.535Z,12.83
